sensor_id;sensor_type;location;lat;lon;timestamp;temperature;humidity
56428;DHT22;42331;53.578;9.760;2022-09-09T08:18:21;16.70;99.90
56428;DHT22;42331;53.578;9.760;2022-09-09T08:20:52;16.70;99.90
56428;DHT22;42331;53.578;9.760;2022-09-09T08:23:23;16.70;99.90
56428;DHT22;42331;53.578;9.760;2022-09-09T08:25:54;16.80;99.90
56428;DHT22;42331;53.578;9.760;2022-09-09T08:28:25;16.80;99.90
56428;DHT22;42331;53.578;9.760;2022-09-09T08:31:04;16.80;99.90
56428;DHT22;42331;53.578;9.760;2022-09-09T08:33:35;16.60;99.90
56428;DHT22;42331;53.578;9.760;2022-09-09T08:36:11;16.50;99.90
56428;DHT22;42331;53.578;9.760;2022-09-09T08:38:43;16.50;99.90
56428;DHT22;42331;53.578;9.760;2022-09-09T08:52:30;16.20;99.90
56428;DHT22;42331;53.578;9.760;2022-09-09T08:58:32;16.10;99.90
56428;DHT22;42331;53.578;9.760;2022-09-09T09:06:36;16.20;99.90
56428;DHT22;42331;53.578;9.760;2022-09-09T09:09:27;16.20;99.90
56428;DHT22;42331;53.578;9.760;2022-09-09T09:12:16;16.20;99.90
56428;DHT22;42331;53.578;9.760;2022-09-09T09:14:49;16.30;99.90
56428;DHT22;42331;53.578;9.760;2022-09-09T09:17:21;16.30;99.90
56428;DHT22;42331;53.578;9.760;2022-09-09T09:19:54;16.20;99.90
56428;DHT22;42331;53.578;9.760;2022-09-09T09:25:11;16.30;99.90
56428;DHT22;42331;53.578;9.760;2022-09-09T09:28:02;16.40;99.90
56428;DHT22;42331;53.578;9.760;2022-09-09T09:30:38;16.50;99.90
56428;DHT22;42331;53.578;9.760;2022-09-09T09:35:56;16.90;99.90
56428;DHT22;42331;53.578;9.760;2022-09-09T09:38:28;17.10;99.90
56428;DHT22;42331;53.578;9.760;2022-09-09T09:40:59;17.20;99.90
56428;DHT22;42331;53.578;9.760;2022-09-09T09:43:33;17.50;99.90
56428;DHT22;42331;53.578;9.760;2022-09-09T09:46:05;17.70;99.90
56428;DHT22;42331;53.578;9.760;2022-09-09T09:48:36;18.00;99.90
56428;DHT22;42331;53.578;9.760;2022-09-09T09:51:10;18.30;99.90
56428;DHT22;42331;53.578;9.760;2022-09-09T09:53:42;18.40;99.90
56428;DHT22;42331;53.578;9.760;2022-09-09T09:56:14;18.60;99.90
56428;DHT22;42331;53.578;9.760;2022-09-09T10:01:30;18.90;99.90
56428;DHT22;42331;53.578;9.760;2022-09-09T10:04:16;19.00;99.90
56428;DHT22;42331;53.578;9.760;2022-09-09T10:06:49;19.20;99.90
56428;DHT22;42331;53.578;9.760;2022-09-09T10:09:28;19.30;99.90
56428;DHT22;42331;53.578;9.760;2022-09-09T10:26:44;22.70;99.90
56428;DHT22;42331;53.578;9.760;2022-09-09T10:29:40;23.00;99.90
56428;DHT22;42331;53.578;9.760;2022-09-09T10:37:34;24.50;99.90
56428;DHT22;42331;53.578;9.760;2022-09-09T10:59:48;24.90;99.90
56428;DHT22;42331;53.578;9.760;2022-09-09T11:02:28;24.70;99.90
56428;DHT22;42331;53.578;9.760;2022-09-09T11:05:16;24.10;99.90
56428;DHT22;42331;53.578;9.760;2022-09-09T11:08:00;24.10;99.90
56428;DHT22;42331;53.578;9.760;2022-09-09T11:13:22;22.40;99.90
56428;DHT22;42331;53.578;9.760;2022-09-09T11:18:43;21.50;99.90
56428;DHT22;42331;53.578;9.760;2022-09-09T11:21:25;21.20;99.90
